Metar Aviation Weather Data LICT Vincenzo Florio Trapani-Birgi

18°C Temp
16°C Dewpoint
88% Humidity
Temperature
2 KM/H
1 MPH
1 KTS
Calm
Due North

Wind Speed
Partly Cloudy
Conditions
Pressure 1025 (hPa) - 30.27 (in)
Visibility 6.2 (mi) - 10 (km)

Current Conditions
LICT
Vincenzo Florio Trapani-Birgi
Metar :LICT 121655Z VRB01KT 9999 FEW025 18/16 Q1025
Mon 12th November 18:55 pm

Vincenzo Florio Trapani-Birgi
  Metar Aviation API Data Provided by https://www.checkwx.com/ PHP scripts by weather34.com ©2018